Aeroporto :







RITROVATECI SU...

 
LOGIN :

Iscrizione | Disclaimer

   EN    FR    IT 

 









Sommario :    VFR   VFR Marginale   IFR   IFR Intensivo   IFR Molto Intensivo
Visibilità : 
Base nubi : 
>= 8 km
>= 3000ft
5 / 8 km
1000 / 3000 ft
1500m / 5 km
500 / 1000 ft
800 / 1500m
200 / 500 ft
< 800m
< 200 ft
Simboli :   Temporali  Nebbia  Neve Forte  Precipitazioni Forti  Vento > 20 kt






- Altitudine del aeroporto : 107 ft


KBVY - Beverly Municipal

ULTIMO METAR :
  • 040242Z AUTO 04017G28KT 3SM -RA BR OVC008 06/04 A2988 RMK AO2 PK WND 05029/0227 CIG 005V013 P0002 T00610044

METARs OBSOLETI :
  • 040233Z AUTO 04019G29KT 2 1/2SM -RA BR BKN008 OVC013 07/04 A2988 RMK AO2 PK WND 05029/0227 P0002 T00670044
  • 040223Z AUTO 03019G27KT 1 3/4SM -RA BR BKN008 OVC013 07/04 A2988 RMK AO2 PK WND 04028/0206 P0002 T00670044
  • 040153Z AUTO 04018G29KT 2 1/2SM -RA BR BKN008 OVC014 07/05 A2987 RMK AO2 PK WND 03030/0139 SLP110 P0004 T00670050
  • 040134Z AUTO 04018G26KT 2SM -RA BR BKN007 OVC013 07/05 A2986 RMK AO2 PK WND 02027/0104 P0003 T00670050
  • 040125Z AUTO 02014G26KT 1 3/4SM -RA BR BKN007 OVC013 07/05 A2986 RMK AO2 PK WND 02027/0104 P0002 T00670050
  • 040053Z AUTO 04016G28KT 2SM -RA BR OVC007 07/06 A2985 RMK AO2 PK WND 03028/0019 CIG 005V013 SLP104 P0002 T00720056
  • 040044Z AUTO 04018G25KT 2SM -RA BR OVC007 07/06 A2984 RMK AO2 PK WND 03028/0019 CIG 004V011 P0002 T00720056
  • 040013Z AUTO 03013G26KT 1 3/4SM -RA BR OVC007 07/06 A2983 RMK AO2 PK WND 03028/2355 CIG 005V010 P0001 T00720056
  • 032353Z 03013G27KT 2SM -RA BR BKN007 OVC011 07/06 A2981 RMK AO2 PK WND 03035/2301 CIG 005V009 SLP092 P0004 60031 T00720056 10078 20072 51029

TAF N/A



MetMap, La meteo Aeronautica in un colpo d'occhio ! - Copyright ORBIFLY Dicembre 2007 - Disclaimer

ORBIFLY MET'MAP TEAM :

Programmazione e sviluppo : Alexandra Zaïnal
Concezione : Baudouin d'Aumeries
Aiuto per la programmazione : Marc-Olivier Méhu
Supporto tecnico e logistico : Manuel Goepfert
Aiuto per la traduzione : Arnaldo La Scala

Contatto : metmap@orbifly.com




FONTI E CREDITI :

   NOAA